Неизвестная ошибка (Warning): строка 43 файла /metar/Service/MetarService.php
Описание:
file_get_contents(https://www.aviationweather.gov/adds/metars/?station_ids=UNKL&std_trans=standard&chk_metars=on&hoursStr=most+recent+only&submitmet=Submit): Failed to open stream: HTTP request failed! HTTP/1.1 403 Forbidden
Трассировка:
 #1 metar/Service/MetarService.php, line=43, function=file_get_contents()
  #2 metar/Service/MetarService.php, line=18, function=getFromAviationweatherGov()
   #3 metar/index.php, line=30, function=getMetarString()
    #4 index.php, line=1, function=include()
Погода для параплана Кемерово под Лысую гору

Погода METAR - Красноярск

Кемерово, Абакан, Красноярск, Новосибирск
Код METAR: UNKL 162030Z 24001MPS CAVOK M06/M08 Q1028 R29/CLRD65 NOSIG RMK QFE745

Погода - Сейчас

Время: 2024-04-17 03:30, местное
Направление ветра: Запад-юго-запад (240°)
Скорость ветра: 1 м/с
Видимость: более 10км, отсутствие осадков и облаков
Температура: -6°C
Точка росы: -8°C
Атмосферное давление: 1028 гПа

Архив погоды

Время, местное Направление Скорость, м/с Температура, °C Точка росы, °C Давление, гПа
2024-04-17 03:30 ЗЮЗ (240°) 1 -6 -8 1028
2024-04-11 14:00 Переменный 2 0 -14 1011
2024-04-07 12:30 Переменный 1 12 0 1014
2024-04-07 00:00 Штиль 0 1 0 1016
2024-04-05 01:30 ЗЮЗ (260°) 6 5 1 1017
2024-04-04 01:00 ЮЗ (230°) 4 3 -2 1019
2024-03-30 11:00 ЗЮЗ (240°) 6 6 -1 1009
2024-03-30 06:30 ЮЗ (230°) 3 2 1 1010
2024-03-23 08:30 Штиль 0 -12 -16 1014
2024-03-22 09:30 З (270°) 4 -11 -16 1013
2024-03-14 22:00 ЗЮЗ (260°) 6 -6 -9 1019
2024-03-13 11:30 ЗСЗ (290°) 2 -6 -7 1007
2024-03-10 05:00 Штиль 0 -15 -17 1019
2024-03-10 00:30 Переменный 1 -14 -16 1020
2024-03-09 04:30 ЗЮЗ (240°) 3 -7 -9 1023
2024-03-06 15:00 ЗЮЗ (240°) 7, порывы до 13 1 -11 1017
2024-03-06 10:00 ЗЮЗ (240°) 4 -2 -11 1018
2024-03-04 11:30 ЮЗ (220°) 5, порывы до 10 -5 -13 1018
2024-03-03 19:30 Переменный 1 -12 -15 1020
2024-03-03 18:30 В (90°) 1 -11 -15 1019
2024-02-29 03:00 ЮЗ (210°) 3 -7 -18 1028
2024-02-26 20:30 Штиль 0 -20 -22 1035
2024-02-22 16:00 В (80°) 2 -16 -25 1038
2024-02-20 23:00 З (280°) 1 -28 -32 1047
2024-02-19 00:30 З (280°) 2 -33 -37 1040
2024-02-17 12:30 З (270°) 7 -23 -30 1030
2024-02-13 17:00 ЗЮЗ (250°) 4 -14 -20 1028
2024-02-06 22:30 Штиль 0 -11 -11 1027
2024-02-05 19:30 ЮЗ (230°) 4 -1 -8 1023
2024-02-05 08:00 ЮЮЗ (200°) 4 -2 -9 1018
2024-02-02 21:00 Переменный 1 -18 -19 1027
2024-02-02 17:30 ЗЮЗ (240°) 1 -15 -17 1028
2024-01-27 23:00 Ю (190°) 1 -19 -21 1033
2024-01-22 17:30 ЗЮЗ (240°) 1 -19 -21 1042
2024-01-19 07:30 Штиль 0 -26 -29 1043
2024-01-19 05:00 Штиль 0 -26 -28 1043
2024-01-16 15:00 ЗЮЗ (260°) 4 -16 -22 1036
2024-01-14 10:00 ВЮВ (110°) 4 -10 -17 1009
2024-01-14 05:30 В (90°) 1 -11 -18 1012
2024-01-14 00:00 Ю (170°) 3 -8 -20 1013
2024-01-13 10:30 ЮЮЗ (200°) 5 -13 -23 1020
2024-01-13 06:00 ЮЮЗ (200°) 4 -14 -24 1023
2024-01-09 12:30 ЗЮЗ (240°) 6 -5 -15 998
2024-01-08 10:00 Штиль 0 -25 -28 1017
2024-01-07 12:00 З (270°) 6 -9 -13 1021
2024-01-07 05:00 ЗЮЗ (260°) 7 -6 -10 1015
2024-01-06 07:30 ЮЗ (210°) 6 -6 -10 1008
2024-01-06 05:30 ЮЗ (220°) 5 -6 -11 1008